sensor_id;sensor_type;location;lat;lon;timestamp;P1;durP1;ratioP1;P2;durP2;ratioP2
63114;SDS011;49208;50.874;6.466;2022-10-16T05:03:34;3.78;;;2.10;;
63114;SDS011;49208;50.874;6.466;2022-10-16T05:05:59;3.40;;;2.13;;
63114;SDS011;49208;50.874;6.466;2022-10-16T05:08:25;3.85;;;1.55;;
63114;SDS011;49208;50.874;6.466;2022-10-16T05:10:50;3.85;;;1.65;;
63114;SDS011;49208;50.874;6.466;2022-10-16T05:13:16;4.07;;;1.77;;
63114;SDS011;49208;50.874;6.466;2022-10-16T05:15:41;2.67;;;1.58;;
63114;SDS011;49208;50.874;6.466;2022-10-16T05:18:07;3.00;;;1.40;;
63114;SDS011;49208;50.874;6.466;2022-10-16T05:20:33;5.78;;;1.70;;
63114;SDS011;49208;50.874;6.466;2022-10-16T05:22:59;3.00;;;1.45;;
63114;SDS011;49208;50.874;6.466;2022-10-16T05:25:24;3.10;;;1.90;;
63114;SDS011;49208;50.874;6.466;2022-10-16T05:27:49;3.50;;;2.17;;
63114;SDS011;49208;50.874;6.466;2022-10-16T05:30:16;4.80;;;1.80;;
63114;SDS011;49208;50.874;6.466;2022-10-16T05:32:45;3.70;;;2.13;;
63114;SDS011;49208;50.874;6.466;2022-10-16T05:35:12;2.47;;;1.58;;
63114;SDS011;49208;50.874;6.466;2022-10-16T05:37:37;3.58;;;1.95;;
63114;SDS011;49208;50.874;6.466;2022-10-16T05:40:03;3.15;;;2.00;;
63114;SDS011;49208;50.874;6.466;2022-10-16T05:42:29;4.32;;;2.08;;
63114;SDS011;49208;50.874;6.466;2022-10-16T05:44:55;2.97;;;1.55;;
63114;SDS011;49208;50.874;6.466;2022-10-16T05:47:20;2.88;;;1.67;;
63114;SDS011;49208;50.874;6.466;2022-10-16T05:49:46;3.65;;;1.70;;
63114;SDS011;49208;50.874;6.466;2022-10-16T05:52:11;5.28;;;1.88;;
63114;SDS011;49208;50.874;6.466;2022-10-16T05:54:37;3.25;;;1.80;;
63114;SDS011;49208;50.874;6.466;2022-10-16T05:57:02;3.88;;;1.90;;
63114;SDS011;49208;50.874;6.466;2022-10-16T05:59:27;4.15;;;2.35;;
63114;SDS011;49208;50.874;6.466;2022-10-16T06:01:53;3.63;;;2.08;;
63114;SDS011;49208;50.874;6.466;2022-10-16T06:04:18;3.78;;;2.00;;
63114;SDS011;49208;50.874;6.466;2022-10-16T06:06:43;4.80;;;1.85;;
63114;SDS011;49208;50.874;6.466;2022-10-16T06:09:09;4.00;;;2.20;;
63114;SDS011;49208;50.874;6.466;2022-10-16T06:11:34;3.85;;;2.53;;
63114;SDS011;49208;50.874;6.466;2022-10-16T06:14:01;4.55;;;2.15;;
63114;SDS011;49208;50.874;6.466;2022-10-16T06:16:31;4.00;;;2.40;;
63114;SDS011;49208;50.874;6.466;2022-10-16T06:18:56;3.05;;;2.00;;
63114;SDS011;49208;50.874;6.466;2022-10-16T06:21:24;4.38;;;2.25;;
63114;SDS011;49208;50.874;6.466;2022-10-16T06:23:50;4.83;;;2.10;;
63114;SDS011;49208;50.874;6.466;2022-10-16T06:26:17;4.50;;;2.00;;
63114;SDS011;49208;50.874;6.466;2022-10-16T06:28:44;5.00;;;2.47;;
63114;SDS011;49208;50.874;6.466;2022-10-16T06:31:10;4.30;;;2.10;;
63114;SDS011;49208;50.874;6.466;2022-10-16T06:33:37;5.00;;;2.35;;
63114;SDS011;49208;50.874;6.466;2022-10-16T06:38:33;4.43;;;2.47;;
63114;SDS011;49208;50.874;6.466;2022-10-16T06:40:58;6.10;;;2.38;;
63114;SDS011;49208;50.874;6.466;2022-10-16T06:43:24;3.50;;;2.13;;
63114;SDS011;49208;50.874;6.466;2022-10-16T06:45:53;4.30;;;1.92;;
63114;SDS011;49208;50.874;6.466;2022-10-16T06:48:19;4.82;;;2.67;;
63114;SDS011;49208;50.874;6.466;2022-10-16T06:50:57;4.28;;;2.03;;
63114;SDS011;49208;50.874;6.466;2022-10-16T06:53:28;2.80;;;1.67;;
63114;SDS011;49208;50.874;6.466;2022-10-16T06:55:55;4.38;;;2.25;;
63114;SDS011;49208;50.874;6.466;2022-10-16T06:58:20;4.20;;;2.47;;
63114;SDS011;49208;50.874;6.466;2022-10-16T07:00:46;4.07;;;2.33;;
63114;SDS011;49208;50.874;6.466;2022-10-16T07:03:12;6.18;;;2.42;;
63114;SDS011;49208;50.874;6.466;2022-10-16T07:05:41;4.03;;;2.78;;
63114;SDS011;49208;50.874;6.466;2022-10-16T07:08:07;4.43;;;2.90;;
63114;SDS011;49208;50.874;6.466;2022-10-16T07:10:33;4.88;;;2.70;;
63114;SDS011;49208;50.874;6.466;2022-10-16T07:12:58;6.78;;;2.97;;
63114;SDS011;49208;50.874;6.466;2022-10-16T07:15:24;6.38;;;2.90;;
63114;SDS011;49208;50.874;6.466;2022-10-16T07:17:50;4.30;;;2.15;;
63114;SDS011;49208;50.874;6.466;2022-10-16T07:20:15;4.60;;;2.42;;
63114;SDS011;49208;50.874;6.466;2022-10-16T07:22:41;6.25;;;2.40;;
63114;SDS011;49208;50.874;6.466;2022-10-16T07:25:06;3.83;;;2.03;;
63114;SDS011;49208;50.874;6.466;2022-10-16T07:27:32;3.50;;;1.90;;
63114;SDS011;49208;50.874;6.466;2022-10-16T07:29:57;3.15;;;1.60;;
63114;SDS011;49208;50.874;6.466;2022-10-16T07:32:23;4.40;;;1.40;;
63114;SDS011;49208;50.874;6.466;2022-10-16T07:34:50;2.70;;;1.48;;
63114;SDS011;49208;50.874;6.466;2022-10-16T07:37:16;3.05;;;1.27;;
63114;SDS011;49208;50.874;6.466;2022-10-16T07:39:41;2.85;;;1.23;;
63114;SDS011;49208;50.874;6.466;2022-10-16T07:42:06;3.88;;;1.60;;
63114;SDS011;49208;50.874;6.466;2022-10-16T07:44:32;2.67;;;1.50;;
63114;SDS011;49208;50.874;6.466;2022-10-16T07:46:58;2.78;;;1.48;;
63114;SDS011;49208;50.874;6.466;2022-10-16T07:49:23;2.45;;;1.20;;
63114;SDS011;49208;50.874;6.466;2022-10-16T07:51:49;2.95;;;1.30;;
63114;SDS011;49208;50.874;6.466;2022-10-16T07:54:15;2.47;;;1.20;;
63114;SDS011;49208;50.874;6.466;2022-10-16T07:56:40;2.38;;;1.10;;
63114;SDS011;49208;50.874;6.466;2022-10-16T07:59:06;2.40;;;1.20;;
63114;SDS011;49208;50.874;6.466;2022-10-16T08:01:31;1.98;;;1.00;;
63114;SDS011;49208;50.874;6.466;2022-10-16T08:03:56;2.13;;;0.80;;
63114;SDS011;49208;50.874;6.466;2022-10-16T08:06:22;1.60;;;0.80;;
63114;SDS011;49208;50.874;6.466;2022-10-16T08:08:47;1.20;;;0.63;;
63114;SDS011;49208;50.874;6.466;2022-10-16T08:11:13;1.63;;;0.80;;
63114;SDS011;49208;50.874;6.466;2022-10-16T08:13:39;1.38;;;0.75;;
63114;SDS011;49208;50.874;6.466;2022-10-16T08:16:05;2.75;;;0.70;;
63114;SDS011;49208;50.874;6.466;2022-10-16T08:18:33;2.83;;;0.80;;
63114;SDS011;49208;50.874;6.466;2022-10-16T08:21:00;3.13;;;0.88;;
63114;SDS011;49208;50.874;6.466;2022-10-16T08:23:26;1.73;;;0.70;;
63114;SDS011;49208;50.874;6.466;2022-10-16T08:25:56;1.90;;;0.65;;
63114;SDS011;49208;50.874;6.466;2022-10-16T08:28:28;2.30;;;0.60;;
63114;SDS011;49208;50.874;6.466;2022-10-16T08:30:53;3.92;;;0.88;;
63114;SDS011;49208;50.874;6.466;2022-10-16T08:33:19;1.20;;;0.60;;
63114;SDS011;49208;50.874;6.466;2022-10-16T08:35:53;4.45;;;0.90;;
63114;SDS011;49208;50.874;6.466;2022-10-16T08:38:19;0.93;;;0.47;;
63114;SDS011;49208;50.874;6.466;2022-10-16T08:40:45;2.63;;;0.80;;
63114;SDS011;49208;50.874;6.466;2022-10-16T08:48:43;1.77;;;0.60;;
63114;SDS011;49208;50.874;6.466;2022-10-16T08:51:12;1.55;;;0.50;;
63114;SDS011;49208;50.874;6.466;2022-10-16T08:53:46;1.58;;;0.60;;
63114;SDS011;49208;50.874;6.466;2022-10-16T08:56:23;3.05;;;0.52;;
63114;SDS011;49208;50.874;6.466;2022-10-16T08:58:50;3.88;;;0.60;;
63114;SDS011;49208;50.874;6.466;2022-10-16T09:12:22;2.05;;;0.65;;
63114;SDS011;49208;50.874;6.466;2022-10-16T09:20:03;1.85;;;0.60;;
63114;SDS011;49208;50.874;6.466;2022-10-16T09:22:35;2.13;;;0.70;;
63114;SDS011;49208;50.874;6.466;2022-10-16T09:25:04;2.85;;;0.60;;
63114;SDS011;49208;50.874;6.466;2022-10-16T09:27:37;5.85;;;0.65;;
63114;SDS011;49208;50.874;6.466;2022-10-16T09:32:58;2.25;;;0.60;;
63114;SDS011;49208;50.874;6.466;2022-10-16T09:38:23;5.78;;;0.85;;
63114;SDS011;49208;50.874;6.466;2022-10-16T09:40:51;3.33;;;0.55;;
63114;SDS011;49208;50.874;6.466;2022-10-16T09:48:37;1.48;;;0.50;;
63114;SDS011;49208;50.874;6.466;2022-10-16T09:51:15;2.25;;;0.70;;
63114;SDS011;49208;50.874;6.466;2022-10-16T09:53:48;1.23;;;0.52;;
63114;SDS011;49208;50.874;6.466;2022-10-16T09:56:27;2.88;;;0.68;;
63114;SDS011;49208;50.874;6.466;2022-10-16T09:59:03;3.15;;;0.95;;
63114;SDS011;49208;50.874;6.466;2022-10-16T10:01:37;3.40;;;0.90;;
63114;SDS011;49208;50.874;6.466;2022-10-16T10:04:05;2.40;;;0.52;;
63114;SDS011;49208;50.874;6.466;2022-10-16T10:06:35;2.08;;;0.65;;
63114;SDS011;49208;50.874;6.466;2022-10-16T10:11:51;1.55;;;0.50;;
63114;SDS011;49208;50.874;6.466;2022-10-16T10:16:46;2.22;;;0.45;;
63114;SDS011;49208;50.874;6.466;2022-10-16T10:19:22;4.10;;;0.73;;
63114;SDS011;49208;50.874;6.466;2022-10-16T10:21:49;1.38;;;0.50;;
63114;SDS011;49208;50.874;6.466;2022-10-16T10:24:16;1.20;;;0.38;;
63114;SDS011;49208;50.874;6.466;2022-10-16T10:35:30;3.72;;;0.60;;
63114;SDS011;49208;50.874;6.466;2022-10-16T10:38:12;3.90;;;0.73;;
63114;SDS011;49208;50.874;6.466;2022-10-16T10:46:04;1.95;;;0.70;;
63114;SDS011;49208;50.874;6.466;2022-10-16T10:54:17;1.55;;;0.50;;
63114;SDS011;49208;50.874;6.466;2022-10-16T10:57:01;2.17;;;0.70;;
63114;SDS011;49208;50.874;6.466;2022-10-16T11:07:36;2.22;;;0.60;;
63114;SDS011;49208;50.874;6.466;2022-10-16T11:10:17;4.97;;;0.90;;
63114;SDS011;49208;50.874;6.466;2022-10-16T11:12:47;2.17;;;0.38;;
63114;SDS011;49208;50.874;6.466;2022-10-16T11:17:50;1.35;;;0.73;;
63114;SDS011;49208;50.874;6.466;2022-10-16T11:20:22;2.58;;;0.60;;
63114;SDS011;49208;50.874;6.466;2022-10-16T11:22:51;3.35;;;0.60;;
63114;SDS011;49208;50.874;6.466;2022-10-16T11:25:22;1.27;;;0.50;;
63114;SDS011;49208;50.874;6.466;2022-10-16T11:27:56;1.23;;;0.50;;
63114;SDS011;49208;50.874;6.466;2022-10-16T11:30:24;2.78;;;0.60;;
63114;SDS011;49208;50.874;6.466;2022-10-16T11:33:03;1.83;;;0.63;;
63114;SDS011;49208;50.874;6.466;2022-10-16T11:35:39;1.27;;;0.30;;
63114;SDS011;49208;50.874;6.466;2022-10-16T11:38:15;0.90;;;0.47;;
63114;SDS011;49208;50.874;6.466;2022-10-16T11:40:53;0.70;;;0.30;;
63114;SDS011;49208;50.874;6.466;2022-10-16T11:43:32;1.88;;;0.40;;
63114;SDS011;49208;50.874;6.466;2022-10-16T11:46:04;3.45;;;0.60;;
63114;SDS011;49208;50.874;6.466;2022-10-16T11:48:50;2.55;;;0.40;;
63114;SDS011;49208;50.874;6.466;2022-10-16T11:51:34;1.48;;;0.55;;
63114;SDS011;49208;50.874;6.466;2022-10-16T11:57:11;0.55;;;0.40;;
63114;SDS011;49208;50.874;6.466;2022-10-16T11:59:43;2.78;;;0.77;;
63114;SDS011;49208;50.874;6.466;2022-10-16T12:05:12;1.88;;;0.50;;
63114;SDS011;49208;50.874;6.466;2022-10-16T12:07:51;1.05;;;0.40;;
63114;SDS011;49208;50.874;6.466;2022-10-16T12:10:20;2.50;;;0.60;;
63114;SDS011;49208;50.874;6.466;2022-10-16T12:12:49;2.47;;;0.90;;
63114;SDS011;49208;50.874;6.466;2022-10-16T12:17:51;2.28;;;0.40;;
63114;SDS011;49208;50.874;6.466;2022-10-16T12:22:49;1.20;;;0.63;;
63114;SDS011;49208;50.874;6.466;2022-10-16T12:25:32;1.70;;;0.60;;
63114;SDS011;49208;50.874;6.466;2022-10-16T12:30:27;2.65;;;0.77;;
63114;SDS011;49208;50.874;6.466;2022-10-16T12:32:56;3.25;;;0.70;;
63114;SDS011;49208;50.874;6.466;2022-10-16T12:35:27;3.22;;;1.50;;
63114;SDS011;49208;50.874;6.466;2022-10-16T12:38:08;2.45;;;1.05;;
63114;SDS011;49208;50.874;6.466;2022-10-16T12:40:42;3.33;;;1.40;;
63114;SDS011;49208;50.874;6.466;2022-10-16T12:46:05;3.15;;;0.70;;
63114;SDS011;49208;50.874;6.466;2022-10-16T12:48:30;2.17;;;0.60;;
63114;SDS011;49208;50.874;6.466;2022-10-16T12:50:56;3.15;;;0.85;;
63114;SDS011;49208;50.874;6.466;2022-10-16T12:53:25;1.20;;;0.70;;
63114;SDS011;49208;50.874;6.466;2022-10-16T13:06:42;2.95;;;0.57;;
63114;SDS011;49208;50.874;6.466;2022-10-16T13:09:27;2.30;;;0.60;;
63114;SDS011;49208;50.874;6.466;2022-10-16T13:18:19;1.70;;;0.70;;
63114;SDS011;49208;50.874;6.466;2022-10-16T13:20:57;4.18;;;0.73;;
63114;SDS011;49208;50.874;6.466;2022-10-16T13:28:48;3.83;;;0.80;;
63114;SDS011;49208;50.874;6.466;2022-10-16T13:31:19;3.33;;;0.82;;
63114;SDS011;49208;50.874;6.466;2022-10-16T13:33:48;2.05;;;0.60;;
63114;SDS011;49208;50.874;6.466;2022-10-16T13:36:18;3.13;;;1.05;;
63114;SDS011;49208;50.874;6.466;2022-10-16T13:38:48;1.23;;;0.40;;
63114;SDS011;49208;50.874;6.466;2022-10-16T13:41:25;4.20;;;0.68;;
63114;SDS011;49208;50.874;6.466;2022-10-16T13:43:51;2.33;;;0.82;;
63114;SDS011;49208;50.874;6.466;2022-10-16T13:46:22;3.00;;;0.98;;
63114;SDS011;49208;50.874;6.466;2022-10-16T13:49:02;2.58;;;0.88;;
63114;SDS011;49208;50.874;6.466;2022-10-16T13:51:27;3.13;;;0.65;;
63114;SDS011;49208;50.874;6.466;2022-10-16T13:53:54;6.63;;;1.15;;
63114;SDS011;49208;50.874;6.466;2022-10-16T13:56:22;3.03;;;0.82;;
63114;SDS011;49208;50.874;6.466;2022-10-16T13:59:02;4.10;;;1.08;;
63114;SDS011;49208;50.874;6.466;2022-10-16T14:01:30;3.70;;;0.90;;
63114;SDS011;49208;50.874;6.466;2022-10-16T14:04:04;4.38;;;1.13;;
63114;SDS011;49208;50.874;6.466;2022-10-16T14:06:32;2.85;;;0.80;;
63114;SDS011;49208;50.874;6.466;2022-10-16T14:08:59;3.90;;;1.00;;
63114;SDS011;49208;50.874;6.466;2022-10-16T14:11:29;5.53;;;0.90;;
63114;SDS011;49208;50.874;6.466;2022-10-16T14:13:55;2.00;;;0.80;;
63114;SDS011;49208;50.874;6.466;2022-10-16T14:16:22;3.38;;;0.80;;
63114;SDS011;49208;50.874;6.466;2022-10-16T14:18:54;6.53;;;0.95;;
63114;SDS011;49208;50.874;6.466;2022-10-16T14:21:21;5.05;;;1.13;;
63114;SDS011;49208;50.874;6.466;2022-10-16T14:23:46;3.53;;;1.00;;
63114;SDS011;49208;50.874;6.466;2022-10-16T14:26:12;2.80;;;0.77;;
63114;SDS011;49208;50.874;6.466;2022-10-16T14:28:39;2.50;;;0.60;;
63114;SDS011;49208;50.874;6.466;2022-10-16T14:33:51;2.60;;;0.70;;
63114;SDS011;49208;50.874;6.466;2022-10-16T14:36:17;4.18;;;1.05;;
63114;SDS011;49208;50.874;6.466;2022-10-16T14:38:48;2.92;;;1.10;;
63114;SDS011;49208;50.874;6.466;2022-10-16T14:41:21;6.57;;;1.13;;
63114;SDS011;49208;50.874;6.466;2022-10-16T14:43:50;4.22;;;1.02;;
63114;SDS011;49208;50.874;6.466;2022-10-16T14:46:19;6.63;;;1.00;;
63114;SDS011;49208;50.874;6.466;2022-10-16T14:48:46;5.63;;;0.98;;
63114;SDS011;49208;50.874;6.466;2022-10-16T14:51:15;4.72;;;1.02;;
63114;SDS011;49208;50.874;6.466;2022-10-16T14:53:44;6.00;;;1.10;;
63114;SDS011;49208;50.874;6.466;2022-10-16T14:56:20;5.78;;;0.98;;
63114;SDS011;49208;50.874;6.466;2022-10-16T14:58:48;3.67;;;1.13;;
63114;SDS011;49208;50.874;6.466;2022-10-16T15:01:15;2.50;;;0.80;;
63114;SDS011;49208;50.874;6.466;2022-10-16T15:03:41;8.75;;;0.98;;
63114;SDS011;49208;50.874;6.466;2022-10-16T15:06:15;5.72;;;1.38;;
63114;SDS011;49208;50.874;6.466;2022-10-16T15:08:41;3.03;;;0.80;;
63114;SDS011;49208;50.874;6.466;2022-10-16T15:11:13;6.88;;;1.33;;
63114;SDS011;49208;50.874;6.466;2022-10-16T15:13:43;2.30;;;0.80;;
63114;SDS011;49208;50.874;6.466;2022-10-16T15:16:10;2.17;;;0.80;;
63114;SDS011;49208;50.874;6.466;2022-10-16T15:18:37;6.65;;;1.00;;
63114;SDS011;49208;50.874;6.466;2022-10-16T15:21:03;5.25;;;1.00;;
63114;SDS011;49208;50.874;6.466;2022-10-16T15:23:28;3.75;;;0.80;;
63114;SDS011;49208;50.874;6.466;2022-10-16T15:25:54;4.88;;;1.15;;
63114;SDS011;49208;50.874;6.466;2022-10-16T15:28:21;3.30;;;0.90;;
63114;SDS011;49208;50.874;6.466;2022-10-16T15:30:51;4.95;;;1.23;;
63114;SDS011;49208;50.874;6.466;2022-10-16T15:33:19;7.78;;;0.98;;
63114;SDS011;49208;50.874;6.466;2022-10-16T15:35:48;2.53;;;1.05;;
63114;SDS011;49208;50.874;6.466;2022-10-16T15:38:14;2.92;;;0.90;;
63114;SDS011;49208;50.874;6.466;2022-10-16T15:40:40;5.68;;;1.10;;
63114;SDS011;49208;50.874;6.466;2022-10-16T15:43:06;3.08;;;0.85;;
63114;SDS011;49208;50.874;6.466;2022-10-16T15:45:33;7.03;;;0.87;;
63114;SDS011;49208;50.874;6.466;2022-10-16T15:47:58;5.95;;;1.00;;
63114;SDS011;49208;50.874;6.466;2022-10-16T15:50:24;2.70;;;0.93;;
63114;SDS011;49208;50.874;6.466;2022-10-16T15:52:50;5.80;;;1.20;;
63114;SDS011;49208;50.874;6.466;2022-10-16T15:55:16;8.07;;;1.92;;
63114;SDS011;49208;50.874;6.466;2022-10-16T15:57:42;5.73;;;1.20;;
63114;SDS011;49208;50.874;6.466;2022-10-16T16:00:09;2.90;;;0.77;;
63114;SDS011;49208;50.874;6.466;2022-10-16T16:02:39;6.03;;;1.38;;
63114;SDS011;49208;50.874;6.466;2022-10-16T16:05:06;4.72;;;1.55;;
63114;SDS011;49208;50.874;6.466;2022-10-16T16:07:33;3.85;;;1.02;;
63114;SDS011;49208;50.874;6.466;2022-10-16T16:09:59;3.65;;;0.95;;
63114;SDS011;49208;50.874;6.466;2022-10-16T16:12:25;4.68;;;1.35;;
63114;SDS011;49208;50.874;6.466;2022-10-16T16:14:50;4.38;;;1.27;;
63114;SDS011;49208;50.874;6.466;2022-10-16T16:17:16;9.60;;;2.22;;
63114;SDS011;49208;50.874;6.466;2022-10-16T16:19:41;5.32;;;1.42;;
63114;SDS011;49208;50.874;6.466;2022-10-16T16:22:07;6.15;;;1.92;;
63114;SDS011;49208;50.874;6.466;2022-10-16T16:24:32;7.22;;;2.63;;
63114;SDS011;49208;50.874;6.466;2022-10-16T16:26:58;4.90;;;4.13;;
63114;SDS011;49208;50.874;6.466;2022-10-16T16:29:23;6.25;;;3.58;;
63114;SDS011;49208;50.874;6.466;2022-10-16T16:31:49;4.97;;;2.85;;
63114;SDS011;49208;50.874;6.466;2022-10-16T16:34:14;5.47;;;2.10;;
63114;SDS011;49208;50.874;6.466;2022-10-16T16:36:40;3.22;;;1.67;;
63114;SDS011;49208;50.874;6.466;2022-10-16T16:39:05;2.50;;;1.10;;
63114;SDS011;49208;50.874;6.466;2022-10-16T16:41:31;2.65;;;1.10;;
63114;SDS011;49208;50.874;6.466;2022-10-16T16:44:01;2.65;;;1.27;;
63114;SDS011;49208;50.874;6.466;2022-10-16T16:46:32;3.83;;;1.77;;
63114;SDS011;49208;50.874;6.466;2022-10-16T16:48:58;5.35;;;2.72;;
63114;SDS011;49208;50.874;6.466;2022-10-16T16:51:24;5.55;;;3.25;;
63114;SDS011;49208;50.874;6.466;2022-10-16T16:53:50;5.57;;;2.80;;
63114;SDS011;49208;50.874;6.466;2022-10-16T16:58:49;6.63;;;2.65;;
63114;SDS011;49208;50.874;6.466;2022-10-16T17:01:16;4.85;;;3.00;;
63114;SDS011;49208;50.874;6.466;2022-10-16T17:03:43;3.15;;;2.10;;
63114;SDS011;49208;50.874;6.466;2022-10-16T17:06:09;2.88;;;1.65;;
63114;SDS011;49208;50.874;6.466;2022-10-16T17:08:36;3.28;;;1.58;;
63114;SDS011;49208;50.874;6.466;2022-10-16T17:11:02;4.05;;;1.90;;
63114;SDS011;49208;50.874;6.466;2022-10-16T17:13:29;4.03;;;2.37;;
63114;SDS011;49208;50.874;6.466;2022-10-16T17:15:56;4.55;;;2.92;;
63114;SDS011;49208;50.874;6.466;2022-10-16T17:18:23;4.65;;;3.00;;
63114;SDS011;49208;50.874;6.466;2022-10-16T17:20:49;3.13;;;2.08;;
63114;SDS011;49208;50.874;6.466;2022-10-16T17:23:15;3.37;;;2.07;;
63114;SDS011;49208;50.874;6.466;2022-10-16T17:25:43;3.65;;;0.95;;
63114;SDS011;49208;50.874;6.466;2022-10-16T17:28:09;2.15;;;1.00;;
63114;SDS011;49208;50.874;6.466;2022-10-16T17:30:39;3.42;;;1.50;;
63114;SDS011;49208;50.874;6.466;2022-10-16T17:33:05;3.03;;;1.70;;
63114;SDS011;49208;50.874;6.466;2022-10-16T17:35:42;4.60;;;1.30;;
63114;SDS011;49208;50.874;6.466;2022-10-16T17:38:10;2.90;;;1.15;;
63114;SDS011;49208;50.874;6.466;2022-10-16T17:40:36;3.17;;;1.50;;
63114;SDS011;49208;50.874;6.466;2022-10-16T17:43:02;2.10;;;0.93;;
63114;SDS011;49208;50.874;6.466;2022-10-16T17:45:27;3.17;;;1.48;;
63114;SDS011;49208;50.874;6.466;2022-10-16T17:47:53;3.60;;;1.52;;
63114;SDS011;49208;50.874;6.466;2022-10-16T17:50:19;2.13;;;1.10;;
63114;SDS011;49208;50.874;6.466;2022-10-16T17:52:45;2.90;;;1.35;;
63114;SDS011;49208;50.874;6.466;2022-10-16T17:55:10;2.60;;;1.40;;
63114;SDS011;49208;50.874;6.466;2022-10-16T17:57:36;3.10;;;1.25;;
63114;SDS011;49208;50.874;6.466;2022-10-16T18:00:02;3.25;;;1.35;;
63114;SDS011;49208;50.874;6.466;2022-10-16T18:02:29;3.05;;;1.23;;
63114;SDS011;49208;50.874;6.466;2022-10-16T18:04:54;2.20;;;1.08;;
63114;SDS011;49208;50.874;6.466;2022-10-16T18:07:20;4.97;;;2.22;;
63114;SDS011;49208;50.874;6.466;2022-10-16T18:09:46;3.37;;;1.67;;
63114;SDS011;49208;50.874;6.466;2022-10-16T18:12:12;3.40;;;1.65;;
63114;SDS011;49208;50.874;6.466;2022-10-16T18:14:37;3.75;;;1.55;;
63114;SDS011;49208;50.874;6.466;2022-10-16T18:17:03;3.10;;;1.42;;
63114;SDS011;49208;50.874;6.466;2022-10-16T18:19:28;7.18;;;3.70;;
63114;SDS011;49208;50.874;6.466;2022-10-16T18:21:54;4.95;;;2.35;;
63114;SDS011;49208;50.874;6.466;2022-10-16T18:24:20;24.20;;;13.10;;
63114;SDS011;49208;50.874;6.466;2022-10-16T18:26:49;5.00;;;2.75;;
63114;SDS011;49208;50.874;6.466;2022-10-16T18:29:16;8.07;;;3.67;;
63114;SDS011;49208;50.874;6.466;2022-10-16T18:31:41;4.25;;;2.55;;
63114;SDS011;49208;50.874;6.466;2022-10-16T18:34:07;4.47;;;2.58;;
63114;SDS011;49208;50.874;6.466;2022-10-16T18:36:33;11.55;;;3.42;;
63114;SDS011;49208;50.874;6.466;2022-10-16T18:39:00;6.38;;;2.75;;
63114;SDS011;49208;50.874;6.466;2022-10-16T18:41:28;5.07;;;3.20;;
63114;SDS011;49208;50.874;6.466;2022-10-16T18:43:56;5.82;;;4.07;;
63114;SDS011;49208;50.874;6.466;2022-10-16T18:46:24;6.45;;;4.28;;
63114;SDS011;49208;50.874;6.466;2022-10-16T18:48:50;5.80;;;3.22;;
63114;SDS011;49208;50.874;6.466;2022-10-16T18:53:44;5.55;;;1.92;;
63114;SDS011;49208;50.874;6.466;2022-10-16T18:56:11;4.43;;;2.20;;
63114;SDS011;49208;50.874;6.466;2022-10-16T18:58:41;3.58;;;2.08;;
63114;SDS011;49208;50.874;6.466;2022-10-16T19:01:09;3.85;;;1.63;;
63114;SDS011;49208;50.874;6.466;2022-10-16T19:03:38;3.30;;;1.90;;
63114;SDS011;49208;50.874;6.466;2022-10-16T19:06:07;2.85;;;1.50;;
63114;SDS011;49208;50.874;6.466;2022-10-16T19:08:35;3.67;;;1.70;;
63114;SDS011;49208;50.874;6.466;2022-10-16T19:11:16;3.17;;;1.65;;
63114;SDS011;49208;50.874;6.466;2022-10-16T19:13:44;3.35;;;1.70;;
63114;SDS011;49208;50.874;6.466;2022-10-16T19:16:11;3.30;;;1.98;;
63114;SDS011;49208;50.874;6.466;2022-10-16T19:18:38;4.57;;;2.55;;
63114;SDS011;49208;50.874;6.466;2022-10-16T19:21:04;4.15;;;2.00;;
63114;SDS011;49208;50.874;6.466;2022-10-16T19:23:31;3.13;;;1.92;;
63114;SDS011;49208;50.874;6.466;2022-10-16T19:26:04;4.22;;;1.77;;
63114;SDS011;49208;50.874;6.466;2022-10-16T19:28:31;3.08;;;1.55;;
63114;SDS011;49208;50.874;6.466;2022-10-16T19:30:59;2.83;;;1.52;;
63114;SDS011;49208;50.874;6.466;2022-10-16T19:33:26;3.10;;;1.55;;
63114;SDS011;49208;50.874;6.466;2022-10-16T19:35:52;3.30;;;1.10;;
63114;SDS011;49208;50.874;6.466;2022-10-16T19:38:17;2.95;;;1.45;;
63114;SDS011;49208;50.874;6.466;2022-10-16T19:40:42;2.55;;;1.23;;
63114;SDS011;49208;50.874;6.466;2022-10-16T19:43:08;2.80;;;1.45;;
63114;SDS011;49208;50.874;6.466;2022-10-16T19:45:33;3.13;;;1.30;;
63114;SDS011;49208;50.874;6.466;2022-10-16T19:47:59;6.22;;;1.60;;
63114;SDS011;49208;50.874;6.466;2022-10-16T19:50:24;3.53;;;1.75;;
63114;SDS011;49208;50.874;6.466;2022-10-16T19:52:49;4.45;;;1.83;;
63114;SDS011;49208;50.874;6.466;2022-10-16T19:55:15;3.75;;;1.52;;
63114;SDS011;49208;50.874;6.466;2022-10-16T19:57:41;5.33;;;1.60;;
63114;SDS011;49208;50.874;6.466;2022-10-16T20:00:07;4.05;;;2.08;;
63114;SDS011;49208;50.874;6.466;2022-10-16T20:02:33;4.20;;;1.80;;
63114;SDS011;49208;50.874;6.466;2022-10-16T20:04:59;5.47;;;1.90;;
63114;SDS011;49208;50.874;6.466;2022-10-16T20:07:25;3.85;;;2.15;;
63114;SDS011;49208;50.874;6.466;2022-10-16T20:09:50;3.72;;;1.95;;
63114;SDS011;49208;50.874;6.466;2022-10-16T20:12:15;5.03;;;1.95;;
63114;SDS011;49208;50.874;6.466;2022-10-16T20:14:41;3.70;;;1.95;;
63114;SDS011;49208;50.874;6.466;2022-10-16T20:17:06;3.65;;;1.80;;
63114;SDS011;49208;50.874;6.466;2022-10-16T20:19:32;4.72;;;1.50;;
63114;SDS011;49208;50.874;6.466;2022-10-16T20:21:58;4.20;;;1.92;;
63114;SDS011;49208;50.874;6.466;2022-10-16T20:24:24;4.43;;;2.00;;
63114;SDS011;49208;50.874;6.466;2022-10-16T20:26:49;7.05;;;2.60;;
63114;SDS011;49208;50.874;6.466;2022-10-16T20:29:15;5.43;;;2.50;;
63114;SDS011;49208;50.874;6.466;2022-10-16T20:31:40;6.15;;;2.60;;
63114;SDS011;49208;50.874;6.466;2022-10-16T20:34:07;6.55;;;2.83;;
63114;SDS011;49208;50.874;6.466;2022-10-16T20:36:34;5.15;;;2.60;;
63114;SDS011;49208;50.874;6.466;2022-10-16T20:39:02;4.30;;;2.40;;
63114;SDS011;49208;50.874;6.466;2022-10-16T20:41:28;5.05;;;2.40;;
63114;SDS011;49208;50.874;6.466;2022-10-16T20:43:53;4.93;;;2.17;;
63114;SDS011;49208;50.874;6.466;2022-10-16T20:46:24;6.40;;;2.80;;
63114;SDS011;49208;50.874;6.466;2022-10-16T20:48:51;6.47;;;3.08;;
63114;SDS011;49208;50.874;6.466;2022-10-16T20:53:54;6.18;;;3.13;;
63114;SDS011;49208;50.874;6.466;2022-10-16T20:56:24;6.85;;;2.75;;
63114;SDS011;49208;50.874;6.466;2022-10-16T21:01:18;8.80;;;2.97;;
63114;SDS011;49208;50.874;6.466;2022-10-16T21:03:49;7.30;;;3.05;;
63114;SDS011;49208;50.874;6.466;2022-10-16T21:06:16;5.80;;;2.88;;
63114;SDS011;49208;50.874;6.466;2022-10-16T21:08:41;5.53;;;2.35;;
63114;SDS011;49208;50.874;6.466;2022-10-16T21:11:11;6.20;;;3.20;;
63114;SDS011;49208;50.874;6.466;2022-10-16T21:13:38;7.38;;;3.20;;
63114;SDS011;49208;50.874;6.466;2022-10-16T21:16:05;6.13;;;3.03;;
63114;SDS011;49208;50.874;6.466;2022-10-16T21:18:31;8.68;;;3.17;;
63114;SDS011;49208;50.874;6.466;2022-10-16T21:20:57;6.50;;;3.80;;
63114;SDS011;49208;50.874;6.466;2022-10-16T21:23:23;5.88;;;2.88;;
63114;SDS011;49208;50.874;6.466;2022-10-16T21:25:49;7.63;;;3.60;;
63114;SDS011;49208;50.874;6.466;2022-10-16T21:28:15;6.25;;;3.35;;
63114;SDS011;49208;50.874;6.466;2022-10-16T21:30:41;14.05;;;3.85;;
63114;SDS011;49208;50.874;6.466;2022-10-16T21:33:06;9.60;;;3.83;;
63114;SDS011;49208;50.874;6.466;2022-10-16T21:35:31;7.65;;;3.42;;
63114;SDS011;49208;50.874;6.466;2022-10-16T21:37:57;7.85;;;3.35;;
63114;SDS011;49208;50.874;6.466;2022-10-16T21:40:22;10.68;;;3.78;;
63114;SDS011;49208;50.874;6.466;2022-10-16T21:42:47;14.73;;;4.53;;
63114;SDS011;49208;50.874;6.466;2022-10-16T21:45:13;8.25;;;3.90;;
63114;SDS011;49208;50.874;6.466;2022-10-16T21:47:38;10.60;;;4.20;;
63114;SDS011;49208;50.874;6.466;2022-10-16T21:50:04;8.38;;;4.15;;
63114;SDS011;49208;50.874;6.466;2022-10-16T21:52:30;7.78;;;3.60;;
63114;SDS011;49208;50.874;6.466;2022-10-16T21:54:55;8.02;;;3.88;;
63114;SDS011;49208;50.874;6.466;2022-10-16T21:57:21;7.47;;;3.28;;